createdAt,value
2023-05-02T00:01:44.911Z,66.77
2023-05-02T00:04:12.706Z,68.07
2023-05-02T00:06:42.410Z,66.61
2023-05-02T00:09:10.438Z,66.62
2023-05-02T00:11:37.951Z,64.41
2023-05-02T00:14:05.548Z,65.75
2023-05-02T00:16:34.414Z,65.31
2023-05-02T00:19:02.080Z,66.32
2023-05-02T00:21:29.946Z,64.78
2023-05-02T00:23:57.878Z,63.83
2023-05-02T00:26:26.827Z,67.14
2023-05-02T00:28:54.367Z,65.44
2023-05-02T00:31:21.920Z,66.83
2023-05-02T00:33:50.876Z,66.97
2023-05-02T00:36:19.683Z,67.25
2023-05-02T00:38:47.197Z,64.85
2023-05-02T00:41:14.893Z,66.49
2023-05-02T00:43:42.507Z,65.54
2023-05-02T00:46:13.187Z,67.65
2023-05-02T00:48:40.907Z,66.92
2023-05-02T00:51:12.180Z,72.86
2023-05-02T00:53:40.064Z,68.77
2023-05-02T00:56:08.603Z,73.90
2023-05-02T00:58:36.954Z,75.55
2023-05-02T01:01:12.244Z,72.86
2023-05-02T01:03:43.633Z,73.29
2023-05-02T01:06:21.256Z,74.53
2023-05-02T01:08:53.822Z,73.75
2023-05-02T01:11:30.454Z,76.21
2023-05-02T01:13:59.870Z,79.99
2023-05-02T01:16:27.881Z,78.93
2023-05-02T01:18:55.422Z,82.16
2023-05-02T01:21:24.571Z,83.39
2023-05-02T01:23:59.096Z,82.42
2023-05-02T01:26:31.810Z,81.28
2023-05-02T01:29:01.041Z,82.61
2023-05-02T01:31:30.279Z,83.02
2023-05-02T01:33:59.100Z,84.01
2023-05-02T01:36:29.396Z,83.43
2023-05-02T01:38:57.938Z,84.24
2023-05-02T01:41:28.193Z,83.26
2023-05-02T01:43:58.471Z,83.53
2023-05-02T01:46:28.356Z,84.21
2023-05-02T01:48:58.850Z,88.14
2023-05-02T01:51:31.906Z,84.05
2023-05-02T01:54:01.155Z,86.13
2023-05-02T01:56:28.951Z,82.37
2023-05-02T01:58:56.906Z,76.80
2023-05-02T02:01:27.497Z,78.82
2023-05-02T02:03:57.919Z,82.68
2023-05-02T02:06:26.007Z,82.85
2023-05-02T02:08:53.591Z,84.95
2023-05-02T02:11:26.227Z,86.94
2023-05-02T02:13:54.357Z,86.13
2023-05-02T02:16:26.275Z,84.34
2023-05-02T02:18:57.097Z,86.62
2023-05-02T02:21:25.103Z,86.39
2023-05-02T02:23:55.150Z,87.89
2023-05-02T02:26:23.272Z,80.70
2023-05-02T02:28:50.781Z,75.88
2023-05-02T02:31:18.385Z,85.64
2023-05-02T02:33:45.960Z,87.67
2023-05-02T02:36:18.309Z,85.84
2023-05-02T02:38:49.191Z,85.12
2023-05-02T02:41:20.498Z,82.08
2023-05-02T02:43:54.453Z,82.02
2023-05-02T02:46:30.592Z,78.30
2023-05-02T02:49:03.910Z,82.49
2023-05-02T02:51:35.040Z,80.94
2023-05-02T02:54:22.996Z,83.01
2023-05-02T02:57:00.553Z,81.94
2023-05-02T02:59:31.761Z,79.14
2023-05-02T03:02:04.490Z,83.54
2023-05-02T03:04:32.041Z,82.33
2023-05-02T03:07:01.331Z,82.58
2023-05-02T03:09:33.583Z,83.29
2023-05-02T03:12:01.352Z,84.87
2023-05-02T03:14:28.853Z,84.35
2023-05-02T03:16:57.026Z,80.53
2023-05-02T03:19:24.634Z,79.24
2023-05-02T03:21:52.413Z,77.32
2023-05-02T03:24:21.923Z,78.99
2023-05-02T03:26:49.603Z,80.62
2023-05-02T03:29:17.282Z,75.78
2023-05-02T03:31:44.788Z,77.99
2023-05-02T03:34:12.321Z,75.58
2023-05-02T03:36:39.814Z,78.61
2023-05-02T03:39:07.649Z,77.69
2023-05-02T03:41:36.502Z,76.23
2023-05-02T03:44:04.292Z,75.04
2023-05-02T03:46:31.775Z,70.47
2023-05-02T03:48:59.573Z,73.47
2023-05-02T03:51:27.642Z,72.59
2023-05-02T03:53:55.156Z,74.48
2023-05-02T03:56:23.304Z,76.81
2023-05-02T03:58:52.109Z,77.74
2023-05-02T04:01:19.982Z,76.52
2023-05-02T04:03:47.617Z,76.35
2023-05-02T04:06:15.528Z,74.86
2023-05-02T04:08:43.398Z,72.51
2023-05-02T04:11:11.043Z,75.13
2023-05-02T04:13:38.609Z,73.79
2023-05-02T04:16:07.980Z,71.96
2023-05-02T04:18:35.510Z,73.66
2023-05-02T04:21:03.248Z,75.26
2023-05-02T04:23:30.731Z,77.10
2023-05-02T04:25:58.230Z,72.89
2023-05-02T04:28:25.897Z,75.53
2023-05-02T04:30:53.623Z,77.27
2023-05-02T04:33:22.515Z,76.59
2023-05-02T04:35:50.140Z,76.16
2023-05-02T04:38:17.614Z,77.78
2023-05-02T04:40:45.944Z,78.44
2023-05-02T04:43:13.577Z,79.25
2023-05-02T04:45:41.084Z,75.32
2023-05-02T04:48:08.605Z,77.02
2023-05-02T04:50:37.470Z,81.02
2023-05-02T04:53:05.303Z,82.07
2023-05-02T04:55:32.784Z,81.61
2023-05-02T04:58:00.260Z,79.13
2023-05-02T05:00:27.746Z,78.73
2023-05-02T05:02:55.426Z,80.21
2023-05-02T05:05:23.019Z,79.52
2023-05-02T05:07:52.501Z,76.30
2023-05-02T05:10:20.017Z,78.01
2023-05-02T05:12:49.258Z,76.78
2023-05-02T05:15:17.193Z,75.12
2023-05-02T05:17:44.708Z,78.11
2023-05-02T05:20:12.749Z,79.14
2023-05-02T05:22:41.417Z,79.77
2023-05-02T05:25:11.308Z,79.51
2023-05-02T05:27:39.675Z,75.33
2023-05-02T05:30:08.859Z,74.17
2023-05-02T05:32:36.565Z,72.69
2023-05-02T05:35:04.862Z,74.45
2023-05-02T05:37:32.398Z,75.59
2023-05-02T05:40:00.237Z,79.16
2023-05-02T05:42:29.460Z,76.16
2023-05-02T05:44:57.027Z,77.82
2023-05-02T05:47:24.797Z,75.45
2023-05-02T05:49:54.156Z,76.90
2023-05-02T05:52:21.657Z,78.35
2023-05-02T05:54:49.422Z,76.77
2023-05-02T05:57:16.892Z,79.27
2023-05-02T05:59:45.795Z,80.77
2023-05-02T06:02:13.512Z,80.07
2023-05-02T06:04:41.115Z,76.54
2023-05-02T06:07:08.623Z,78.49
2023-05-02T06:09:36.291Z,78.73
2023-05-02T06:12:03.824Z,80.78
2023-05-02T06:14:31.313Z,81.12
2023-05-02T06:17:01.263Z,81.94
2023-05-02T06:19:28.756Z,78.34
2023-05-02T06:21:56.222Z,80.11
2023-05-02T06:24:23.776Z,81.49
2023-05-02T06:26:51.838Z,79.46
2023-05-02T06:29:19.524Z,75.47
2023-05-02T06:31:47.081Z,82.18
2023-05-02T06:34:16.081Z,77.45
2023-05-02T06:36:43.598Z,82.97
2023-05-02T06:39:11.621Z,83.83
2023-05-02T06:41:39.107Z,86.03
2023-05-02T06:44:06.747Z,86.85
2023-05-02T06:46:34.293Z,86.64
2023-05-02T06:49:01.821Z,87.37
2023-05-02T06:51:31.812Z,87.30
2023-05-02T06:53:59.332Z,88.44
2023-05-02T06:56:27.020Z,88.94
2023-05-02T06:58:54.521Z,85.26
2023-05-02T07:01:22.025Z,88.55
2023-05-02T07:03:49.580Z,89.53
2023-05-02T07:06:17.224Z,89.60
2023-05-02T07:08:46.094Z,90.48
2023-05-02T07:11:13.647Z,89.33
2023-05-02T07:13:41.170Z,87.94
2023-05-02T07:16:08.907Z,87.51
2023-05-02T07:18:36.461Z,88.72
2023-05-02T07:21:04.244Z,89.66
2023-05-02T07:23:31.738Z,89.60
2023-05-02T07:26:00.549Z,89.58
2023-05-02T07:28:28.046Z,89.31
2023-05-02T07:30:55.521Z,88.93
2023-05-02T07:33:23.755Z,88.66
2023-05-02T07:35:51.390Z,87.01
2023-05-02T07:38:19.115Z,87.71
2023-05-02T07:40:46.955Z,87.59
2023-05-02T07:43:16.433Z,87.56
2023-05-02T07:45:43.949Z,88.49
2023-05-02T07:48:11.543Z,88.47
2023-05-02T07:50:39.052Z,87.89
2023-05-02T07:53:06.534Z,84.81
2023-05-02T07:55:34.025Z,85.79
2023-05-02T07:58:01.628Z,86.20
2023-05-02T08:00:30.461Z,85.40
2023-05-02T08:02:58.108Z,84.48
2023-05-02T08:05:25.721Z,83.76
2023-05-02T08:07:53.381Z,84.77
2023-05-02T08:10:20.983Z,85.95
2023-05-02T08:12:48.460Z,84.67
2023-05-02T08:15:15.932Z,83.21
2023-05-02T08:17:44.749Z,84.08
2023-05-02T08:20:12.841Z,84.49
2023-05-02T08:22:40.313Z,83.32
2023-05-02T08:25:08.157Z,82.46
2023-05-02T08:27:35.804Z,83.21
2023-05-02T08:30:03.687Z,83.29
2023-05-02T08:32:31.517Z,81.80
2023-05-02T08:35:00.342Z,81.45
2023-05-02T08:37:27.819Z,78.53
2023-05-02T08:39:55.316Z,80.87
2023-05-02T08:42:22.955Z,79.89
2023-05-02T08:44:50.659Z,81.21
2023-05-02T08:47:19.611Z,83.04
2023-05-02T08:49:47.483Z,82.15
2023-05-02T08:52:16.870Z,80.65
2023-05-02T08:54:46.252Z,81.20
2023-05-02T08:57:13.749Z,80.39
2023-05-02T08:59:41.290Z,79.66
2023-05-02T09:02:14.117Z,78.06
2023-05-02T09:04:42.523Z,78.93
2023-05-02T09:07:10.893Z,79.17
2023-05-02T09:09:39.983Z,77.05
2023-05-02T09:12:07.483Z,77.29
2023-05-02T09:14:35.673Z,78.29
2023-05-02T09:17:03.225Z,76.94
2023-05-02T09:19:30.739Z,73.90
2023-05-02T09:22:02.260Z,74.36
2023-05-02T09:24:29.963Z,74.70
2023-05-02T09:27:00.867Z,73.94
2023-05-02T09:29:35.788Z,74.10
2023-05-02T09:32:04.193Z,75.05
2023-05-02T09:34:31.880Z,74.10
2023-05-02T09:36:59.372Z,73.93
2023-05-02T09:39:29.038Z,73.97
2023-05-02T09:41:57.297Z,73.33
2023-05-02T09:44:27.056Z,70.85
2023-05-02T09:46:55.931Z,74.14
2023-05-02T09:49:41.518Z,72.85
2023-05-02T09:52:12.732Z,72.03
2023-05-02T09:54:40.306Z,72.48
2023-05-02T09:57:07.988Z,71.88
2023-05-02T09:59:36.829Z,69.13
2023-05-02T10:02:07.250Z,70.62
2023-05-02T10:04:35.583Z,71.12
2023-05-02T10:07:05.061Z,70.39
2023-05-02T10:09:34.186Z,67.75
2023-05-02T10:12:05.104Z,70.80
2023-05-02T10:14:33.031Z,70.19
2023-05-02T10:17:06.350Z,70.42
2023-05-02T10:19:39.617Z,67.98
2023-05-02T10:22:08.070Z,68.99
2023-05-02T10:24:35.796Z,68.87
2023-05-02T10:27:05.516Z,68.67
2023-05-02T10:29:33.558Z,69.02
2023-05-02T10:32:04.923Z,69.67
2023-05-02T10:34:33.814Z,69.57
2023-05-02T10:37:02.261Z,68.65
2023-05-02T10:39:30.209Z,67.65
2023-05-02T10:41:59.131Z,66.95
2023-05-02T10:44:36.374Z,67.57
2023-05-02T10:47:19.473Z,68.09
2023-05-02T10:49:54.783Z,67.58
2023-05-02T10:52:31.594Z,67.25
2023-05-02T10:55:15.511Z,68.48
2023-05-02T10:58:25.479Z,68.18
2023-05-02T11:00:53.084Z,67.92
2023-05-02T11:03:57.069Z,67.35
2023-05-02T11:06:24.905Z,67.29
2023-05-02T11:08:52.569Z,63.96
2023-05-02T11:11:40.292Z,64.13
2023-05-02T11:14:07.869Z,61.46
2023-05-02T11:17:09.068Z,63.85
2023-05-02T11:20:26.038Z,61.54
2023-05-02T11:22:56.008Z,62.53
2023-05-02T11:25:40.007Z,61.89
2023-05-02T11:28:09.392Z,62.66
2023-05-02T11:30:43.546Z,61.94
2023-05-02T11:33:19.956Z,60.91
2023-05-02T11:35:49.090Z,61.49
2023-05-02T11:38:21.677Z,58.72
2023-05-02T11:40:57.507Z,58.14
2023-05-02T11:43:26.281Z,60.96
2023-05-02T11:45:54.501Z,59.77
2023-05-02T11:48:27.151Z,58.68
2023-05-02T11:50:56.500Z,59.47
2023-05-02T11:53:26.528Z,60.33
2023-05-02T11:55:55.260Z,61.07
2023-05-02T11:58:25.107Z,60.76
2023-05-02T12:00:53.218Z,58.67
2023-05-02T12:03:31.745Z,60.51
2023-05-02T12:06:10.715Z,60.04
2023-05-02T12:08:40.467Z,60.87
2023-05-02T12:11:09.160Z,59.89
2023-05-02T12:13:36.824Z,60.70
2023-05-02T12:16:04.708Z,56.30
2023-05-02T12:18:33.773Z,58.50
2023-05-02T12:21:01.295Z,58.55
2023-05-02T12:23:28.784Z,57.84
2023-05-02T12:25:57.650Z,58.41
2023-05-02T12:28:25.148Z,59.56
2023-05-02T12:30:52.815Z,58.90
2023-05-02T12:33:21.289Z,57.92
2023-05-02T12:35:48.941Z,58.92
2023-05-02T12:38:18.844Z,57.10
2023-05-02T12:40:51.658Z,56.62
2023-05-02T12:43:21.980Z,57.41
2023-05-02T12:45:50.120Z,57.81
2023-05-02T12:48:25.114Z,56.24
2023-05-02T12:50:53.439Z,55.47
2023-05-02T12:53:39.052Z,56.23
2023-05-02T12:56:07.537Z,56.17
2023-05-02T12:58:43.856Z,53.35
2023-05-02T13:01:11.449Z,57.38
2023-05-02T13:03:39.274Z,53.51
2023-05-02T13:06:07.254Z,53.40
2023-05-02T13:08:35.529Z,56.04
2023-05-02T13:11:03.897Z,55.54
2023-05-02T13:13:32.562Z,56.83
2023-05-02T13:16:01.412Z,55.14
2023-05-02T13:18:29.105Z,57.84
2023-05-02T13:20:56.616Z,56.25
2023-05-02T13:23:24.161Z,55.69
2023-05-02T13:25:51.660Z,53.62
2023-05-02T13:28:19.241Z,54.46
2023-05-02T13:30:46.788Z,57.11
2023-05-02T13:33:16.010Z,56.58
2023-05-02T13:35:43.757Z,54.70
2023-05-02T13:38:11.568Z,56.52
2023-05-02T13:40:39.055Z,54.76
2023-05-02T13:43:06.526Z,52.15
2023-05-02T13:45:34.106Z,53.88
2023-05-02T13:48:01.624Z,50.34
2023-05-02T13:50:30.713Z,46.62
2023-05-02T13:52:58.226Z,49.25
2023-05-02T13:55:25.719Z,50.47
2023-05-02T13:57:53.207Z,49.16
2023-05-02T14:00:21.086Z,45.00
2023-05-02T14:02:49.183Z,47.42
2023-05-02T14:05:16.762Z,48.35
2023-05-02T14:07:45.850Z,49.33
2023-05-02T14:10:13.343Z,46.30
2023-05-02T14:12:40.829Z,48.62
2023-05-02T14:15:09.664Z,47.86
2023-05-02T14:17:37.310Z,47.94
2023-05-02T14:20:05.782Z,50.15
2023-05-02T14:22:33.337Z,48.23
2023-05-02T14:25:02.374Z,47.76
2023-05-02T14:27:29.853Z,47.52
2023-05-02T14:29:57.373Z,47.07
2023-05-02T14:32:25.008Z,46.51
2023-05-02T14:34:52.504Z,46.92
2023-05-02T14:37:20.006Z,47.64
2023-05-02T14:39:51.208Z,44.50
2023-05-02T14:42:21.898Z,47.33
2023-05-02T14:44:49.402Z,40.14
2023-05-02T14:47:17.270Z,43.19
2023-05-02T14:49:45.063Z,42.35
2023-05-02T14:52:12.582Z,44.10
2023-05-02T14:54:40.131Z,40.94
2023-05-02T14:57:07.929Z,42.86
2023-05-02T14:59:38.586Z,43.37
2023-05-02T15:02:06.246Z,41.68
2023-05-02T15:04:33.986Z,43.02
2023-05-02T15:07:01.665Z,42.45
2023-05-02T15:09:29.292Z,43.40
2023-05-02T15:11:56.962Z,43.66
2023-05-02T15:14:24.542Z,44.35
2023-05-02T15:16:53.408Z,42.86
2023-05-02T15:19:22.541Z,44.66
2023-05-02T15:21:53.020Z,44.52
2023-05-02T15:24:20.800Z,41.86
2023-05-02T15:26:48.328Z,43.99
2023-05-02T15:29:16.267Z,42.49
2023-05-02T15:31:43.889Z,43.27
2023-05-02T15:34:12.764Z,44.26
2023-05-02T15:36:40.709Z,44.36
2023-05-02T15:39:08.459Z,43.38
2023-05-02T15:41:35.981Z,44.51
2023-05-02T15:44:03.472Z,45.66
2023-05-02T15:46:31.032Z,44.29
2023-05-02T15:48:58.717Z,45.59
2023-05-02T15:51:27.674Z,46.55
2023-05-02T15:53:55.716Z,45.29
2023-05-02T15:56:23.223Z,46.34
2023-05-02T15:58:50.696Z,44.79
2023-05-02T16:01:18.268Z,44.52
2023-05-02T16:03:45.904Z,44.75
2023-05-02T16:06:13.706Z,45.62
2023-05-02T16:08:42.620Z,46.77
2023-05-02T16:11:10.144Z,45.55
2023-05-02T16:13:38.272Z,44.71
2023-05-02T16:16:07.691Z,43.86
2023-05-02T16:18:35.426Z,46.21
2023-05-02T16:21:03.021Z,44.82
2023-05-02T16:23:30.585Z,47.06
2023-05-02T16:26:00.145Z,46.46
2023-05-02T16:28:27.769Z,45.87
2023-05-02T16:30:55.454Z,46.08
2023-05-02T16:33:23.134Z,46.59
2023-05-02T16:35:50.634Z,46.03
2023-05-02T16:38:19.141Z,45.37
2023-05-02T16:40:47.106Z,46.36
2023-05-02T16:43:16.735Z,45.51
2023-05-02T16:45:46.791Z,45.78
2023-05-02T16:48:14.695Z,43.91
2023-05-02T16:50:42.229Z,45.73
2023-05-02T16:53:09.893Z,46.26
2023-05-02T16:55:37.407Z,47.25
2023-05-02T16:58:04.982Z,47.92
2023-05-02T17:00:34.003Z,48.08
2023-05-02T17:03:03.716Z,46.65
2023-05-02T17:05:32.857Z,46.40
2023-05-02T17:08:00.422Z,46.43
2023-05-02T17:10:28.078Z,48.02
2023-05-02T17:12:56.016Z,48.62
2023-05-02T17:15:23.728Z,50.01
2023-05-02T17:17:52.603Z,48.76
2023-05-02T17:20:20.410Z,48.78
2023-05-02T17:22:48.092Z,50.14
2023-05-02T17:25:15.565Z,52.20
2023-05-02T17:27:43.316Z,50.84
2023-05-02T17:30:13.532Z,52.29
2023-05-02T17:32:41.062Z,51.47
2023-05-02T17:35:10.665Z,53.52
2023-05-02T17:37:39.894Z,52.57
2023-05-02T17:40:08.623Z,51.52
2023-05-02T17:42:36.142Z,51.50
2023-05-02T17:45:04.214Z,49.79
2023-05-02T17:47:31.759Z,50.52
2023-05-02T17:49:59.297Z,49.67
2023-05-02T17:52:28.723Z,52.25
2023-05-02T17:54:56.208Z,51.05
2023-05-02T17:57:23.672Z,49.82
2023-05-02T17:59:53.667Z,51.64
2023-05-02T18:02:22.289Z,51.74
2023-05-02T18:04:50.355Z,51.82
2023-05-02T18:07:23.690Z,51.50
2023-05-02T18:09:52.575Z,53.04
2023-05-02T18:12:20.236Z,51.63
2023-05-02T18:14:48.279Z,53.19
2023-05-02T18:17:17.733Z,54.08
2023-05-02T18:19:45.248Z,51.54
2023-05-02T18:22:13.997Z,53.91
2023-05-02T18:24:41.690Z,51.37
2023-05-02T18:27:10.664Z,51.38
2023-05-02T18:29:38.359Z,50.62
2023-05-02T18:32:06.313Z,53.65
2023-05-02T18:34:35.631Z,54.79
2023-05-02T18:37:05.832Z,55.10
2023-05-02T18:39:36.180Z,54.37
2023-05-02T18:42:04.108Z,53.43
2023-05-02T18:44:32.968Z,54.27
2023-05-02T18:47:00.937Z,56.30
2023-05-02T18:49:28.497Z,57.29
2023-05-02T18:51:55.958Z,57.21
2023-05-02T18:54:24.308Z,55.68
2023-05-02T18:56:51.850Z,56.86
2023-05-02T18:59:19.750Z,55.20
2023-05-02T19:01:49.110Z,54.57
2023-05-02T19:04:18.153Z,54.58
2023-05-02T19:06:45.816Z,55.16
2023-05-02T19:09:13.604Z,52.12
2023-05-02T19:11:41.290Z,55.42
2023-05-02T19:14:08.777Z,53.57
2023-05-02T19:16:38.079Z,53.72
2023-05-02T19:19:08.562Z,55.11
2023-05-02T19:21:36.144Z,55.30
2023-05-02T19:24:03.833Z,55.23
2023-05-02T19:26:31.489Z,54.83
2023-05-02T19:28:59.128Z,55.44
2023-05-02T19:31:26.923Z,55.38
2023-05-02T19:33:54.889Z,53.11
2023-05-02T19:36:24.760Z,54.46
2023-05-02T19:38:54.027Z,55.15
2023-05-02T19:41:22.518Z,56.82
2023-05-02T19:43:50.475Z,57.57
2023-05-02T19:46:18.296Z,58.26
2023-05-02T19:48:45.941Z,57.00
2023-05-02T19:51:13.886Z,56.36
2023-05-02T19:53:42.724Z,58.45
2023-05-02T19:56:10.498Z,57.63
2023-05-02T19:58:38.029Z,59.20
2023-05-02T20:01:05.918Z,56.34
2023-05-02T20:03:34.622Z,59.19
2023-05-02T20:06:02.597Z,58.44
2023-05-02T20:08:31.477Z,61.10
2023-05-02T20:11:00.364Z,60.61
2023-05-02T20:13:28.192Z,60.37
2023-05-02T20:15:55.827Z,59.81
2023-05-02T20:18:23.471Z,61.31
2023-05-02T20:20:51.010Z,58.12
2023-05-02T20:23:18.522Z,58.85
2023-05-02T20:25:46.052Z,59.37
2023-05-02T20:28:15.043Z,59.46
2023-05-02T20:30:43.797Z,57.75
2023-05-02T20:33:16.121Z,58.97
2023-05-02T20:35:44.732Z,58.37
2023-05-02T20:38:12.337Z,61.29
2023-05-02T20:40:40.913Z,61.70
2023-05-02T20:43:08.967Z,59.42
2023-05-02T20:45:38.787Z,59.26
2023-05-02T20:48:07.000Z,60.86
2023-05-02T20:50:34.945Z,61.34
2023-05-02T20:53:02.433Z,60.75
2023-05-02T20:55:29.922Z,59.97
2023-05-02T20:57:57.379Z,60.27
2023-05-02T21:00:25.714Z,61.29
2023-05-02T21:02:56.694Z,62.81
2023-05-02T21:05:24.174Z,62.00
2023-05-02T21:07:51.700Z,62.56
2023-05-02T21:10:19.337Z,61.52
2023-05-02T21:12:47.032Z,60.98
2023-05-02T21:15:14.935Z,61.71
2023-05-02T21:17:42.572Z,64.02
2023-05-02T21:20:12.489Z,66.27
2023-05-02T21:22:40.090Z,67.65
2023-05-02T21:25:08.033Z,68.72
2023-05-02T21:27:35.627Z,67.85
2023-05-02T21:30:03.407Z,65.77
2023-05-02T21:32:31.267Z,65.48
2023-05-02T21:34:58.795Z,68.38
2023-05-02T21:37:27.966Z,66.83
2023-05-02T21:39:55.615Z,64.52
2023-05-02T21:42:23.110Z,65.78
2023-05-02T21:44:51.005Z,67.80
2023-05-02T21:47:18.569Z,68.68
2023-05-02T21:49:46.076Z,69.54
2023-05-02T21:52:13.565Z,67.38
2023-05-02T21:54:42.658Z,68.34
2023-05-02T21:57:10.689Z,69.24
2023-05-02T21:59:39.078Z,68.85
2023-05-02T22:02:06.650Z,67.93
2023-05-02T22:04:34.203Z,65.95
2023-05-02T22:07:01.736Z,67.33
2023-05-02T22:09:30.811Z,69.16
2023-05-02T22:12:02.888Z,70.35
2023-05-02T22:14:43.665Z,71.97
2023-05-02T22:17:13.750Z,73.93
2023-05-02T22:19:41.837Z,74.32
2023-05-02T22:22:09.394Z,75.41
2023-05-02T22:24:36.887Z,76.15
2023-05-02T22:27:07.464Z,75.67
2023-05-02T22:29:34.924Z,74.64
2023-05-02T22:32:02.449Z,76.84
2023-05-02T22:34:29.954Z,77.81
2023-05-02T22:36:57.596Z,78.23
2023-05-02T22:39:25.059Z,78.52
2023-05-02T22:41:52.603Z,78.92
2023-05-02T22:44:21.465Z,79.31
2023-05-02T22:46:49.293Z,80.15
2023-05-02T22:49:16.756Z,80.41
2023-05-02T22:51:45.187Z,81.51
2023-05-02T22:54:14.951Z,82.11
2023-05-02T22:56:42.507Z,81.15
2023-05-02T22:59:10.526Z,82.01
2023-05-02T23:01:39.415Z,82.33
2023-05-02T23:04:07.065Z,81.31
2023-05-02T23:06:34.685Z,82.16
2023-05-02T23:09:02.190Z,82.55
2023-05-02T23:11:29.849Z,82.93
2023-05-02T23:13:57.343Z,82.80
2023-05-02T23:16:25.750Z,83.72
2023-05-02T23:18:54.614Z,83.72
2023-05-02T23:21:22.118Z,82.29
2023-05-02T23:23:49.577Z,83.07
2023-05-02T23:26:17.075Z,84.18
2023-05-02T23:28:44.534Z,84.62
2023-05-02T23:31:13.028Z,84.46
2023-05-02T23:33:41.226Z,83.97
2023-05-02T23:36:10.753Z,84.24
2023-05-02T23:38:38.610Z,84.12
2023-05-02T23:41:06.275Z,83.71
2023-05-02T23:43:33.837Z,84.08
2023-05-02T23:46:02.102Z,84.89
2023-05-02T23:48:29.622Z,84.98
2023-05-02T23:50:57.380Z,85.01
2023-05-02T23:53:26.180Z,85.51
2023-05-02T23:55:53.652Z,86.33
2023-05-02T23:58:21.144Z,86.34
